Time;durP1;ratioP1;P1;durP2;ratioP2;P2;SDS_P1;SDS_P2;PMS_P1;PMS_P2;Temp;Humidity;BMP_temperature;BMP_pressure;BME280_temperature;BME280_humidity;BME280_pressure;Samples;Min_cycle;Max_cycle;Signal;HPM_P1;HPM_P2
2022/09/29 00:00:09;;;;;;;;;4.25;3.75;;;;;14.74;54.87;99452.59;5071031;27;45442;-41
2022/09/29 00:02:35;;;;;;;;;4.00;3.75;;;;;14.72;55.23;99441.31;5094907;27;45349;-41
2022/09/29 00:05:00;;;;;;;;;5.00;4.00;;;;;14.75;55.29;99445.53;5074492;27;64608;-41
2022/09/29 00:07:27;;;;;;;;;5.25;3.50;;;;;14.75;55.30;99445.53;5095799;27;47079;-43
2022/09/29 00:09:53;;;;;;;;;4.00;4.00;;;;;14.77;55.24;99447.13;5065037;27;45919;-42
2022/09/29 00:12:18;;;;;;;;;4.25;4.00;;;;;14.80;54.82;99454.84;5087048;27;64698;-40
2022/09/29 00:14:43;;;;;;;;;7.25;4.00;;;;;14.81;54.85;99448.63;5070967;27;45340;-40
2022/09/29 00:17:09;;;;;;;;;5.50;3.75;;;;;14.80;54.87;99446.94;5083524;27;45373;-43
2022/09/29 00:19:34;;;;;;;;;7.50;4.00;;;;;14.79;54.84;99442.63;5059422;28;45440;-41
2022/09/29 00:22:00;;;;;;;;;5.25;3.00;;;;;14.79;55.07;99441.78;5095018;27;45322;-41
2022/09/29 00:24:26;;;;;;;;;3.75;3.75;;;;;14.78;55.19;99443.56;5091549;27;45364;-41
2022/09/29 00:26:51;;;;;;;;;4.00;4.00;;;;;14.77;55.19;99439.25;5060204;28;46523;-41
2022/09/29 00:29:17;;;;;;;;;3.25;3.25;;;;;14.75;54.73;99435.88;5076423;27;45502;-45
2022/09/29 00:31:42;;;;;;;;;3.00;2.00;;;;;14.72;55.12;99433.44;5086451;27;45226;-41
2022/09/29 00:34:08;;;;;;;;;4.00;3.00;;;;;14.71;54.82;99437.00;5092857;27;45441;-39
2022/09/29 00:36:33;;;;;;;;;1.00;0.75;;;;;14.69;54.95;99433.63;5094923;27;46903;-46
2022/09/29 00:38:58;;;;;;;;;5.50;2.25;;;;;14.64;54.95;99429.59;5096391;27;45281;-44
2022/09/29 00:41:27;;;;;;;;;2.25;2.00;;;;;14.61;55.07;99428.03;5086416;27;50637;-44
2022/09/29 00:44:11;;;;;;;;;2.75;2.50;;;;;14.60;55.59;99429.78;5091283;27;45355;-41
2022/09/29 00:46:47;;;;;;;;;3.50;3.50;;;;;14.60;55.25;99427.16;5091392;27;45542;-41
2022/09/29 00:49:37;;;;;;;;;3.25;3.25;;;;;14.62;55.23;99432.31;5095982;27;45427;-45
2022/09/29 00:52:10;;;;;;;;;3.00;3.00;;;;;14.60;55.37;99431.59;5096900;27;45462;-43
2022/09/29 00:54:49;;;;;;;;;2.25;2.25;;;;;14.57;55.04;99432.59;5076957;27;45507;-42
2022/09/29 00:57:17;;;;;;;;;2.25;1.50;;;;;14.58;54.64;99423.78;5075252;27;47077;-43
2022/09/29 00:59:56;;;;;;;;;1.00;1.00;;;;;14.54;55.07;99422.28;5090796;27;45269;-40
2022/09/29 01:02:21;;;;;;;;;3.25;1.50;;;;;14.50;55.22;99430.44;5072988;27;45533;-40
2022/09/29 01:04:50;;;;;;;;;2.50;2.00;;;;;14.46;55.19;99428.97;5085906;27;45509;-41
2022/09/29 01:07:16;;;;;;;;;4.75;2.25;;;;;14.46;55.21;99428.97;5090514;27;45642;-41
2022/09/29 01:09:42;;;;;;;;;2.00;2.00;;;;;14.49;55.41;99436.69;5089692;27;70318;-42
2022/09/29 01:12:07;;;;;;;;;4.00;2.00;;;;;14.49;55.37;99424.34;5098892;27;67660;-41
2022/09/29 01:14:34;;;;;;;;;3.00;2.25;;;;;14.50;55.26;99414.66;5083626;27;45612;-39
2022/09/29 01:17:00;;;;;;;;;3.00;3.00;;;;;14.50;54.84;99415.53;5074962;27;46258;-40
2022/09/29 01:19:34;;;;;;;;;3.00;2.00;;;;;14.50;55.15;99406.75;5078340;27;48935;-40
2022/09/29 01:22:03;;;;;;;;;4.00;2.75;;;;;14.51;54.94;99413.72;5075535;27;45510;-40
2022/09/29 01:24:31;;;;;;;;;2.00;2.00;;;;;14.51;55.21;99408.47;5069851;27;45593;-40
2022/09/29 01:27:16;;;;;;;;;3.00;3.00;;;;;14.53;55.14;99401.31;5100628;27;45401;-40
2022/09/29 01:29:57;;;;;;;;;5.00;2.00;;;;;14.56;54.87;99395.84;5091413;27;46118;-40
2022/09/29 01:32:38;;;;;;;;;4.00;3.00;;;;;14.57;54.81;99400.16;5067566;27;45274;-39
2022/09/29 01:35:19;;;;;;;;;4.00;3.00;;;;;14.59;55.11;99400.94;5094217;27;45292;-40
2022/09/29 01:38:03;;;;;;;;;1.75;1.00;;;;;14.60;55.11;99392.09;5088472;27;46192;-41
2022/09/29 01:40:40;;;;;;;;;2.00;2.00;;;;;14.61;54.84;99396.44;5095478;27;45223;-40
2022/09/29 01:43:17;;;;;;;;;3.00;1.75;;;;;14.61;54.71;99393.78;5062257;28;45313;-39
2022/09/29 01:45:52;;;;;;;;;3.50;2.50;;;;;14.61;54.64;99401.69;5078548;27;45533;-40
2022/09/29 01:48:23;;;;;;;;;2.25;2.25;;;;;14.62;54.59;99403.38;5095614;27;45470;-41
2022/09/29 01:50:51;;;;;;;;;3.00;1.75;;;;;14.61;54.71;99404.31;5074914;27;45530;-45
2022/09/29 01:53:22;;;;;;;;;4.00;1.50;;;;;14.61;54.68;99405.16;5090607;27;46069;-43
2022/09/29 01:55:50;;;;;;;;;2.00;2.00;;;;;14.63;54.80;99398.97;5072609;27;45432;-42
2022/09/29 01:58:21;;;;;;;;;4.00;3.00;;;;;14.62;55.18;99400.72;5075644;27;45429;-41
2022/09/29 02:00:53;;;;;;;;;4.50;3.75;;;;;14.62;54.95;99406.00;5070794;27;45735;-44
2022/09/29 02:03:23;;;;;;;;;1.75;1.75;;;;;14.63;54.88;99404.22;5068880;27;45373;-42
2022/09/29 02:06:01;;;;;;;;;3.25;2.75;;;;;14.60;55.14;99411.34;5081438;27;45626;-50
2022/09/29 02:08:49;;;;;;;;;2.50;2.50;;;;;14.60;54.76;99406.09;5067135;27;45339;-42
2022/09/29 02:11:15;;;;;;;;;4.00;2.75;;;;;14.59;54.79;99409.69;5085314;27;45562;-42
2022/09/29 02:13:59;;;;;;;;;4.25;2.00;;;;;14.56;54.85;99407.22;5082925;27;45280;-43
2022/09/29 02:16:29;;;;;;;;;3.50;2.00;;;;;14.56;55.02;99409.00;5093544;27;45482;-46
2022/09/29 02:18:58;;;;;;;;;2.75;1.25;;;;;14.56;54.62;99416.91;5091598;27;46303;-41
2022/09/29 02:21:25;;;;;;;;;3.50;2.50;;;;;14.54;54.34;99410.91;5085986;27;45814;-40
2022/09/29 02:23:51;;;;;;;;;5.75;2.00;;;;;14.53;54.34;99407.41;5105569;27;45317;-41
2022/09/29 02:26:18;;;;;;;;;2.25;1.50;;;;;14.53;54.79;99410.03;5091805;27;45446;-41
2022/09/29 02:28:44;;;;;;;;;3.00;1.75;;;;;14.53;54.73;99414.47;5095873;27;46118;-40
2022/09/29 02:31:09;;;;;;;;;2.75;2.00;;;;;14.53;54.95;99415.31;5094276;27;45571;-40
2022/09/29 02:33:35;;;;;;;;;3.25;3.00;;;;;14.53;54.60;99407.41;5083518;27;64670;-40
2022/09/29 02:36:01;;;;;;;;;1.00;1.00;;;;;14.53;54.81;99404.78;5084133;27;45339;-41
2022/09/29 02:38:40;;;;;;;;;3.33;2.00;;;;;14.53;54.75;99404.78;5096285;27;45458;-40
2022/09/29 02:41:44;;;;;;;;;2.25;2.00;;;;;14.51;54.73;99403.19;5085705;27;45328;-40
2022/09/29 02:44:15;;;;;;;;;3.00;2.00;;;;;14.50;55.11;99401.50;5090880;27;45450;-40
2022/09/29 02:47:16;;;;;;;;;2.00;2.00;;;;;14.49;54.70;99403.28;5091604;27;45566;-41
2022/09/29 02:50:10;;;;;;;;;2.50;2.50;;;;;14.50;54.98;99404.13;5069370;27;45445;-40
2022/09/29 02:53:00;;;;;;;;;5.00;1.00;;;;;14.50;55.19;99398.84;5082519;27;45960;-42
2022/09/29 02:55:34;;;;;;;;;4.25;2.50;;;;;14.50;54.98;99401.50;5086215;27;45553;-40
2022/09/29 02:58:09;;;;;;;;;2.50;2.50;;;;;14.49;55.19;99392.75;5075301;27;46578;-42
2022/09/29 03:00:35;;;;;;;;;3.00;3.00;;;;;14.49;54.90;99399.81;5082962;27;46165;-41
2022/09/29 03:03:00;;;;;;;;;2.00;2.00;;;;;14.50;55.17;99389.19;5088232;27;45983;-41
2022/09/29 03:05:26;;;;;;;;;5.25;2.00;;;;;14.51;54.90;99395.28;5076209;27;58113;-40
2022/09/29 03:07:51;;;;;;;;;3.25;3.00;;;;;14.53;55.43;99391.59;5071885;27;45436;-40
2022/09/29 03:10:17;;;;;;;;;2.00;2.00;;;;;14.56;55.37;99387.94;5084798;27;71368;-41
2022/09/29 03:12:43;;;;;;;;;4.00;3.00;;;;;14.57;54.95;99382.59;5098228;27;45776;-41
2022/09/29 03:15:11;;;;;;;;;2.50;2.00;;;;;14.57;54.68;99379.97;5088699;27;45343;-40
2022/09/29 03:17:36;;;;;;;;;4.00;2.25;;;;;14.56;55.01;99382.69;5063493;27;45743;-46
2022/09/29 03:20:02;;;;;;;;;2.75;2.75;;;;;14.55;55.01;99387.09;5084664;27;47244;-41
2022/09/29 03:22:28;;;;;;;;;2.00;1.75;;;;;14.57;54.62;99387.84;5089636;27;45458;-40
2022/09/29 03:24:53;;;;;;;;;3.00;2.00;;;;;14.59;54.67;99388.63;5076012;28;51906;-40
2022/09/29 03:27:18;;;;;;;;;1.75;1.50;;;;;14.60;54.98;99381.56;5090992;27;68062;-40
2022/09/29 03:29:44;;;;;;;;;1.50;1.00;;;;;14.61;54.83;99388.53;5083413;27;45787;-42
2022/09/29 03:32:09;;;;;;;;;3.50;3.25;;;;;14.60;54.57;99386.81;5091019;27;65578;-40
2022/09/29 03:34:35;;;;;;;;;3.25;1.50;;;;;14.56;54.92;99382.69;5095116;27;45655;-42
2022/09/29 03:37:00;;;;;;;;;2.25;0.50;;;;;14.53;54.69;99382.88;5091790;27;71390;-40
2022/09/29 03:39:25;;;;;;;;;2.50;1.50;;;;;14.47;55.09;99381.50;5097166;27;45447;-40
2022/09/29 03:41:51;;;;;;;;;4.00;2.50;;;;;14.46;54.84;99387.69;5084070;27;64784;-40
2022/09/29 03:44:16;;;;;;;;;4.00;2.50;;;;;14.47;54.87;99383.28;5081862;27;60003;-40
2022/09/29 03:46:42;;;;;;;;;2.00;2.00;;;;;14.48;55.32;99388.44;5083539;27;45558;-40
2022/09/29 03:49:10;;;;;;;;;1.50;1.50;;;;;14.47;55.06;99383.28;5093559;27;45361;-40
2022/09/29 03:51:39;;;;;;;;;3.75;2.50;;;;;14.49;55.28;99384.03;5097664;27;45379;-40
2022/09/29 03:54:04;;;;;;;;;2.75;2.00;;;;;14.46;55.02;99379.78;5100202;27;45213;-40
2022/09/29 03:56:30;;;;;;;;;4.00;3.00;;;;;14.51;55.19;99385.59;5074973;27;64422;-46
2022/09/29 03:58:55;;;;;;;;;4.25;3.00;;;;;14.51;55.61;99382.13;5079211;27;45845;-40
2022/09/29 04:01:20;;;;;;;;;1.50;1.50;;;;;14.53;55.31;99382.88;5081920;27;68617;-40
2022/09/29 04:03:46;;;;;;;;;4.25;2.00;;;;;14.53;55.38;99383.72;5094587;27;64171;-40
2022/09/29 04:06:11;;;;;;;;;2.50;2.00;;;;;14.52;55.85;99395.19;5085034;27;69844;-40
2022/09/29 04:08:37;;;;;;;;;4.75;2.25;;;;;14.51;55.38;99384.78;5094570;27;46009;-42
2022/09/29 04:11:02;;;;;;;;;4.00;2.00;;;;;14.51;55.74;99390.88;5087718;27;45464;-39
2022/09/29 04:13:28;;;;;;;;;3.75;3.75;;;;;14.48;55.85;99391.06;5095624;27;45366;-41
2022/09/29 04:15:59;;;;;;;;;3.75;2.75;;;;;14.42;56.05;99386.22;5083767;27;73034;-40
2022/09/29 04:18:24;;;;;;;;;5.00;3.50;;;;;14.38;56.02;99390.00;5088159;27;45311;-40
2022/09/29 04:20:49;;;;;;;;;3.00;3.00;;;;;14.37;55.91;99393.56;5090304;27;73182;-40
2022/09/29 04:23:15;;;;;;;;;3.00;3.00;;;;;14.35;56.16;99395.44;5083048;27;45374;-40
2022/09/29 04:25:40;;;;;;;;;1.25;0.75;;;;;14.34;56.16;99399.88;5089942;27;73300;-41
2022/09/29 04:28:05;;;;;;;;;3.50;3.00;;;;;14.34;56.44;99399.00;5093832;27;46901;-41
2022/09/29 04:30:31;;;;;;;;;6.00;2.75;;;;;14.33;56.37;99402.59;5089152;27;69829;-40
2022/09/29 04:32:56;;;;;;;;;4.00;4.00;;;;;14.33;56.33;99400.81;5092401;27;51017;-40
2022/09/29 04:35:22;;;;;;;;;5.25;3.75;;;;;14.32;56.37;99409.63;5073971;27;45527;-40
2022/09/29 04:37:47;;;;;;;;;4.75;2.25;;;;;14.31;56.77;99402.69;5067022;27;46787;-41
2022/09/29 04:40:13;;;;;;;;;3.50;3.50;;;;;14.31;56.58;99402.69;5091708;27;66830;-40
2022/09/29 04:42:38;;;;;;;;;2.50;2.25;;;;;14.31;56.79;99404.47;5098691;27;45411;-43
2022/09/29 04:45:04;;;;;;;;;2.00;2.00;;;;;14.31;56.96;99397.44;5098709;27;45552;-40
2022/09/29 04:47:30;;;;;;;;;2.25;2.25;;;;;14.34;56.99;99406.91;5081043;27;46089;-39
2022/09/29 04:49:55;;;;;;;;;6.25;4.00;;;;;14.35;56.43;99408.59;5086947;27;71906;-41
2022/09/29 04:52:21;;;;;;;;;4.75;3.00;;;;;14.35;56.79;99398.06;5086843;27;45363;-41
2022/09/29 04:54:46;;;;;;;;;5.00;3.75;;;;;14.37;56.91;99401.44;5093965;27;46932;-41
2022/09/29 04:57:11;;;;;;;;;6.00;3.00;;;;;14.38;56.59;99401.34;5090780;27;70878;-41
2022/09/29 04:59:36;;;;;;;;;4.00;4.00;;;;;14.38;56.93;99396.09;5057514;27;45297;-41
2022/09/29 05:02:02;;;;;;;;;4.75;4.50;;;;;14.40;56.80;99396.81;5086775;27;62202;-41
2022/09/29 05:04:27;;;;;;;;;4.75;4.00;;;;;14.41;56.62;99401.16;5082138;27;45501;-40
2022/09/29 05:06:52;;;;;;;;;7.00;4.75;;;;;14.41;56.46;99397.66;5094283;27;76680;-40
2022/09/29 05:09:18;;;;;;;;;4.00;3.00;;;;;14.41;56.69;99395.91;5092767;27;71356;-40
2022/09/29 05:11:43;;;;;;;;;5.00;4.00;;;;;14.38;56.73;99398.72;5074437;27;45264;-41
2022/09/29 05:14:09;;;;;;;;;4.25;3.00;;;;;14.38;56.43;99395.25;5089731;27;57805;-40
2022/09/29 05:16:35;;;;;;;;;3.00;3.00;;;;;14.38;56.87;99401.34;5091177;27;45438;-41
2022/09/29 05:19:01;;;;;;;;;3.00;3.00;;;;;14.37;56.63;99401.44;5075422;27;45714;-41
2022/09/29 05:21:26;;;;;;;;;5.50;4.00;;;;;14.34;56.54;99397.25;5077586;27;45425;-41
2022/09/29 05:23:51;;;;;;;;;3.75;3.75;;;;;14.34;56.95;99399.00;5098127;27;45355;-41
2022/09/29 05:26:17;;;;;;;;;4.25;3.00;;;;;14.31;56.85;99402.69;5098320;27;45461;-42
2022/09/29 05:28:45;;;;;;;;;3.25;3.00;;;;;14.31;56.93;99410.59;5100428;27;45457;-43
2022/09/29 05:31:10;;;;;;;;;5.75;4.00;;;;;14.31;56.72;99412.38;5096709;27;45326;-42
2022/09/29 05:33:37;;;;;;;;;4.00;2.75;;;;;14.31;56.80;99400.06;5095480;27;45372;-44
2022/09/29 05:36:07;;;;;;;;;3.00;2.25;;;;;14.32;56.78;99411.41;5090314;27;45425;-41
2022/09/29 05:38:34;;;;;;;;;3.00;3.00;;;;;14.32;57.39;99412.25;5081588;27;45712;-41
2022/09/29 05:41:03;;;;;;;;;5.00;3.00;;;;;14.32;57.01;99414.88;5089617;27;45398;-42
2022/09/29 05:43:28;;;;;;;;;5.25;4.00;;;;;14.31;56.93;99418.47;5074037;27;45650;-42
2022/09/29 05:46:02;;;;;;;;;6.00;4.00;;;;;14.31;57.17;99423.75;5101597;27;67805;-42
2022/09/29 05:48:29;;;;;;;;;3.75;3.75;;;;;14.31;56.80;99417.66;5061705;27;45308;-41
2022/09/29 05:50:55;;;;;;;;;7.75;4.00;;;;;14.30;57.05;99421.19;5083947;27;45225;-41
2022/09/29 05:53:21;;;;;;;;;5.50;3.75;;;;;14.26;57.01;99419.72;5100001;27;45625;-43
2022/09/29 05:55:46;;;;;;;;;3.25;3.00;;;;;14.24;57.16;99425.06;5079526;27;73554;-41
2022/09/29 05:58:11;;;;;;;;;3.00;3.00;;;;;14.21;57.10;99422.63;5083058;27;67054;-41
2022/09/29 06:00:37;;;;;;;;;4.50;4.50;;;;;14.18;57.01;99426.31;5076492;27;45403;-44
2022/09/29 06:03:02;;;;;;;;;5.50;4.00;;;;;14.15;56.97;99429.13;5088226;27;47196;-42
2022/09/29 06:05:28;;;;;;;;;3.00;3.00;;;;;14.15;56.97;99421.25;5090160;27;46705;-41
2022/09/29 06:07:54;;;;;;;;;5.50;3.00;;;;;14.14;56.89;99418.69;5096734;27;54303;-41
2022/09/29 06:10:20;;;;;;;;;3.25;2.25;;;;;14.14;57.36;99431.84;5095712;27;45586;-43
2022/09/29 06:12:45;;;;;;;;;5.75;3.75;;;;;14.13;57.42;99430.16;5095473;27;45276;-48
2022/09/29 06:15:11;;;;;;;;;7.25;5.00;;;;;14.11;57.24;99421.50;5083907;27;75900;-40
2022/09/29 06:17:37;;;;;;;;;12.25;10.25;;;;;14.11;57.54;99434.66;5086232;27;45470;-40
2022/09/29 06:20:03;;;;;;;;;4.75;4.75;;;;;14.10;57.62;99433.84;5078954;27;45524;-41
2022/09/29 06:22:29;;;;;;;;;5.25;4.50;;;;;14.09;57.68;99436.56;5086426;27;45284;-40
2022/09/29 06:24:54;;;;;;;;;5.50;4.25;;;;;14.09;57.15;99436.56;5084430;27;71826;-41
2022/09/29 06:27:20;;;;;;;;;5.50;3.75;;;;;14.10;57.57;99433.00;5079976;27;64997;-40
2022/09/29 06:29:45;;;;;;;;;4.50;3.50;;;;;14.10;57.35;99431.19;5082330;27;45332;-40
2022/09/29 06:32:10;;;;;;;;;5.50;5.00;;;;;14.13;57.41;99430.16;5098654;27;66153;-41
2022/09/29 06:37:33;;;;;;;;;5.75;4.25;;;;;14.16;57.40;99429.97;5064627;28;48226;-40
2022/09/29 06:37:33;;;;;;;;;4.00;4.00;;;;;14.17;57.31;99437.75;5046170;28;45294;-40
2022/09/29 06:39:59;;;;;;;;;4.00;4.00;;;;;14.16;57.58;99432.59;5048295;28;45387;-40
2022/09/29 06:42:25;;;;;;;;;7.00;5.75;;;;;14.19;57.22;99435.88;5041256;28;45610;-40
2022/09/29 06:44:50;;;;;;;;;5.00;5.00;;;;;14.20;57.43;99441.97;5037509;28;46011;-42
2022/09/29 06:47:15;;;;;;;;;5.00;5.00;;;;;14.21;57.57;99438.41;5059788;28;45277;-42
2022/09/29 06:49:41;;;;;;;;;4.00;2.75;;;;;14.23;56.99;99440.00;5057811;28;61626;-41
2022/09/29 06:52:06;;;;;;;;;6.25;4.75;;;;;14.26;56.99;99432.88;5056276;28;45425;-40
2022/09/29 06:54:31;;;;;;;;;4.25;4.00;;;;;14.28;56.97;99437.09;5058021;28;46322;-40
2022/09/29 06:56:57;;;;;;;;;5.00;3.50;;;;;14.30;56.79;99440.47;5057622;28;45391;-40
2022/09/29 06:59:22;;;;;;;;;4.75;4.00;;;;;14.32;57.00;99441.19;5045181;28;45614;-40
2022/09/29 07:01:48;;;;;;;;;6.25;5.00;;;;;14.34;56.89;99435.84;5040790;28;45229;-41
2022/09/29 07:04:14;;;;;;;;;6.75;5.75;;;;;14.33;57.14;99448.16;5058122;28;46447;-40
2022/09/29 07:06:39;;;;;;;;;6.25;4.00;;;;;14.34;56.64;99447.25;5055772;28;45321;-41
2022/09/29 07:09:05;;;;;;;;;5.00;5.00;;;;;14.34;56.52;99444.63;5056474;28;59381;-42
2022/09/29 07:11:30;;;;;;;;;7.50;7.00;;;;;14.32;56.64;99445.63;5046945;28;45327;-36
2022/09/29 07:13:55;;;;;;;;;6.00;5.00;;;;;14.33;56.97;99448.16;5045324;28;45439;-36
2022/09/29 07:16:22;;;;;;;;;5.50;5.00;;;;;14.35;56.89;99456.81;5059116;28;45665;-36
2022/09/29 07:18:48;;;;;;;;;5.50;5.00;;;;;14.37;57.01;99454.91;5051517;28;45416;-36
2022/09/29 07:21:17;;;;;;;;;7.50;7.00;;;;;14.40;56.94;99454.72;5044924;28;45512;-37
2022/09/29 07:23:44;;;;;;;;;6.00;6.00;;;;;14.41;56.70;99466.09;5053988;28;45437;-37
2022/09/29 07:26:09;;;;;;;;;9.00;7.00;;;;;14.42;56.58;99452.84;5051845;28;45659;-37
2022/09/29 07:28:35;;;;;;;;;6.00;5.00;;;;;14.46;56.94;99464.03;5042559;28;66700;-36
2022/09/29 07:31:12;;;;;;;;;11.25;7.25;;;;;14.49;56.50;99469.09;5046302;28;45194;-37
2022/09/29 07:33:37;;;;;;;;;8.50;6.00;;;;;14.50;56.84;99470.81;5051808;27;46098;-39
2022/09/29 07:36:02;;;;;;;;;7.25;6.00;;;;;14.48;57.10;99470.03;5094555;27;67727;-37
2022/09/29 07:38:29;;;;;;;;;5.50;2.50;;;;;14.50;57.00;99475.19;5107268;27;45265;-37
2022/09/29 07:40:59;;;;;;;;;8.25;7.00;;;;;14.51;57.26;99476.91;5095945;27;45355;-37
2022/09/29 07:43:24;;;;;;;;;8.50;7.00;;;;;14.50;57.08;99481.34;5085731;27;46057;-37
2022/09/29 07:45:50;;;;;;;;;8.00;6.00;;;;;14.49;57.15;99484.91;5082949;27;73675;-37
2022/09/29 07:48:16;;;;;;;;;6.00;6.00;;;;;14.47;57.30;99478.88;5071643;27;45290;-36
2022/09/29 07:50:42;;;;;;;;;7.50;7.25;;;;;14.47;57.12;99478.88;5084147;27;45501;-36
2022/09/29 07:53:08;;;;;;;;;4.75;4.75;;;;;14.50;57.14;99485.72;5065089;27;48417;-37
2022/09/29 07:55:33;;;;;;;;;8.00;7.00;;;;;14.49;57.12;99489.31;5082820;27;45274;-36
2022/09/29 07:58:00;;;;;;;;;7.50;7.00;;;;;14.49;56.99;99491.97;5088859;27;60089;-37
2022/09/29 08:00:26;;;;;;;;;7.50;5.50;;;;;14.48;57.15;99491.09;5067062;27;45368;-36
2022/09/29 08:02:51;;;;;;;;;8.50;6.75;;;;;14.52;57.39;99500.50;5089691;27;45499;-38
2022/09/29 08:05:17;;;;;;;;;13.50;10.25;;;;;14.54;57.15;99493.34;5081520;27;70785;-38
2022/09/29 08:07:42;;;;;;;;;10.00;10.00;;;;;14.58;57.11;99505.41;5099886;27;45232;-38
2022/09/29 08:10:08;;;;;;;;;11.25;9.75;;;;;14.59;56.82;99508.91;5066559;27;45502;-38
2022/09/29 08:12:34;;;;;;;;;15.25;12.25;;;;;14.63;57.15;99509.53;5093520;27;45476;-37
2022/09/29 08:14:59;;;;;;;;;13.00;7.75;;;;;14.64;56.62;99513.84;5093262;27;68961;-38
2022/09/29 08:17:24;;;;;;;;;9.75;7.50;;;;;14.67;56.75;99511.03;5100904;27;69363;-38
2022/09/29 08:19:49;;;;;;;;;8.00;8.00;;;;;14.70;56.81;99514.31;5089318;27;58930;-38
2022/09/29 08:22:15;;;;;;;;;11.75;11.50;;;;;14.74;56.66;99523.69;5098272;27;70928;-38
2022/09/29 08:24:41;;;;;;;;;11.50;9.00;;;;;14.78;56.50;99521.72;5072362;27;69359;-38
2022/09/29 08:27:07;;;;;;;;;9.00;7.00;;;;;14.82;56.35;99510.06;5078328;27;45358;-38
2022/09/29 08:29:32;;;;;;;;;9.75;7.75;;;;;14.87;56.31;99518.47;5098668;27;45311;-38
2022/09/29 08:31:58;;;;;;;;;12.50;11.00;;;;;14.90;56.57;99525.38;5100350;27;45783;-37
2022/09/29 08:34:23;;;;;;;;;9.00;7.25;;;;;14.92;56.31;99526.94;5095396;27;49420;-38
2022/09/29 08:36:49;;;;;;;;;9.00;7.25;;;;;14.95;56.07;99528.53;5097677;27;66945;-38
2022/09/29 08:39:14;;;;;;;;;10.25;9.25;;;;;14.94;56.10;99532.97;5098988;27;45508;-38
2022/09/29 08:41:51;;;;;;;;;10.00;8.75;;;;;14.95;56.08;99539.91;5098717;27;46476;-38
2022/09/29 08:44:40;;;;;;;;;14.50;10.00;;;;;14.95;56.19;99536.44;5097305;27;45258;-38
2022/09/29 08:47:24;;;;;;;;;8.25;7.75;;;;;14.97;56.07;99537.19;5067187;27;45499;-38
2022/09/29 08:49:58;;;;;;;;;12.50;9.75;;;;;14.99;56.32;99544.03;5082578;27;45612;-38
2022/09/29 08:52:27;;;;;;;;;24.50;14.25;;;;;14.97;55.84;99540.66;5079519;28;47143;-37
2022/09/29 08:54:57;;;;;;;;;14.00;12.25;;;;;14.97;56.11;99545.94;5092436;27;45484;-36
2022/09/29 08:57:23;;;;;;;;;13.75;11.00;;;;;14.97;56.00;99545.09;5091433;27;45292;-37
2022/09/29 08:59:57;;;;;;;;;11.00;9.50;;;;;14.97;56.32;99545.09;5080673;27;50345;-37
2022/09/29 09:02:53;;;;;;;;;8.25;8.25;;;;;14.98;56.38;99560.81;5091421;27;45580;-37
2022/09/29 09:05:36;;;;;;;;;10.25;7.25;;;;;14.98;55.80;99557.34;5065782;27;45661;-37
2022/09/29 09:08:14;;;;;;;;;10.50;9.00;;;;;14.96;55.61;99565.34;5101507;27;45336;-37
2022/09/29 09:10:40;;;;;;;;;14.50;9.75;;;;;14.96;55.82;99565.34;5096092;27;45272;-36
2022/09/29 09:13:30;;;;;;;;;13.75;10.25;;;;;14.95;56.05;99555.72;5099907;27;46208;-37
2022/09/29 09:16:05;;;;;;;;;12.00;9.00;;;;;14.97;55.79;99563.53;5101035;27;45852;-37
2022/09/29 09:18:41;;;;;;;;;11.75;9.75;;;;;14.97;56.13;99561.75;5082708;27;45396;-37
2022/09/29 09:21:08;;;;;;;;;11.50;11.50;;;;;14.99;56.11;99559.00;5095768;27;45346;-37
2022/09/29 09:23:39;;;;;;;;;11.25;10.00;;;;;14.98;55.93;99560.81;5092397;27;45417;-38
2022/09/29 09:26:04;;;;;;;;;11.50;9.00;;;;;14.99;55.94;99559.84;5081812;27;45319;-37
2022/09/29 09:28:34;;;;;;;;;13.25;11.25;;;;;14.97;56.07;99563.53;5096906;27;45720;-37
2022/09/29 09:31:04;;;;;;;;;7.25;6.75;;;;;14.96;55.38;99564.47;5068935;27;45572;-38
2022/09/29 09:33:42;;;;;;;;;9.75;9.00;;;;;14.95;55.56;99565.44;5068808;27;47755;-37
2022/09/29 09:36:17;;;;;;;;;13.25;11.25;;;;;14.94;55.38;99564.59;5091270;27;45321;-37
2022/09/29 09:38:57;;;;;;;;;11.75;10.75;;;;;14.97;55.55;99571.44;5079669;27;45278;-38
2022/09/29 09:41:23;;;;;;;;;13.50;11.50;;;;;14.98;55.61;99568.72;5071058;28;45529;-37
2022/09/29 09:43:53;;;;;;;;;11.25;11.25;;;;;15.00;55.44;99568.63;5062934;27;46819;-37
2022/09/29 09:46:26;;;;;;;;;14.50;13.50;;;;;15.02;55.31;99574.63;5078186;27;45750;-37
2022/09/29 09:49:00;;;;;;;;;16.25;13.75;;;;;15.03;55.43;99578.94;5078586;27;45328;-37
2022/09/29 09:51:42;;;;;;;;;13.50;12.00;;;;;15.04;55.19;99579.81;5083706;27;45575;-37
2022/09/29 09:54:19;;;;;;;;;72.00;52.25;;;;;15.04;55.13;99569.25;5098178;27;45265;-37
2022/09/29 09:57:14;;;;;;;;;16.25;13.00;;;;;15.07;55.31;99580.44;5080019;27;45339;-37
2022/09/29 09:59:59;;;;;;;;;12.50;10.25;;;;;15.14;55.14;99583.53;5071324;27;45576;-37
2022/09/29 10:02:24;;;;;;;;;13.50;11.50;;;;;15.21;54.97;99586.59;5088384;27;45568;-37
2022/09/29 10:04:51;;;;;;;;;10.00;8.00;;;;;15.27;55.04;99587.06;5068612;27;46046;-37
2022/09/29 10:07:18;;;;;;;;;10.75;10.00;;;;;15.32;54.72;99577.06;5065085;28;45283;-37
2022/09/29 10:09:44;;;;;;;;;12.00;9.00;;;;;15.42;54.95;99582.56;5098378;27;46278;-37
2022/09/29 10:12:19;;;;;;;;;12.00;11.50;;;;;15.49;54.40;99577.75;5080169;27;52483;-37
2022/09/29 10:15:05;;;;;;;;;12.75;10.50;;;;;15.55;54.70;99587.91;5077507;27;45498;-37
2022/09/29 10:17:41;;;;;;;;;12.25;8.75;;;;;15.60;54.27;99579.66;5080483;27;45793;-37
2022/09/29 10:20:07;;;;;;;;;11.50;10.75;;;;;15.66;54.52;99584.53;5082870;27;45358;-37
2022/09/29 10:22:33;;;;;;;;;15.00;11.50;;;;;15.70;54.19;99591.28;5076830;27;45495;-37
2022/09/29 10:25:10;;;;;;;;;15.25;13.50;;;;;15.77;54.37;99589.13;5073310;28;45476;-38
2022/09/29 10:27:40;;;;;;;;;14.25;13.00;;;;;15.78;54.26;99582.94;5094777;27;45775;-37
2022/09/29 10:30:31;;;;;;;;;14.25;13.00;;;;;15.76;54.40;99583.03;5081684;27;45485;-38
2022/09/29 10:32:59;;;;;;;;;15.25;15.25;;;;;15.78;54.67;99588.19;5091009;27;45479;-38
2022/09/29 10:35:34;;;;;;;;;13.75;13.25;;;;;15.78;54.38;99577.66;5093111;27;46547;-37
2022/09/29 10:38:01;;;;;;;;;22.50;16.50;;;;;15.79;54.45;99584.59;5095932;27;45285;-37
2022/09/29 10:40:27;;;;;;;;;9.25;6.25;;;;;15.73;54.26;99588.47;5060021;28;45287;-38
2022/09/29 10:42:52;;;;;;;;;11.75;8.75;;;;;15.67;54.48;99583.59;5080111;27;45276;-38
2022/09/29 10:45:22;;;;;;;;;11.00;8.50;;;;;15.67;54.45;99594.13;5066002;28;46001;-37
2022/09/29 10:48:10;;;;;;;;;13.25;11.50;;;;;15.68;54.38;99603.75;5090981;27;45731;-37
2022/09/29 10:50:46;;;;;;;;;8.75;8.75;;;;;15.68;54.21;99609.03;5082284;27;45351;-37
2022/09/29 10:53:34;;;;;;;;;12.50;10.00;;;;;15.67;54.64;99608.19;5085186;27;45433;-37
2022/09/29 10:56:04;;;;;;;;;11.00;8.75;;;;;15.65;54.48;99622.41;5080847;27;47029;-37
2022/09/29 10:58:35;;;;;;;;;12.25;9.00;;;;;15.61;54.37;99629.66;5077521;28;45707;-37
2022/09/29 11:01:12;;;;;;;;;8.00;8.00;;;;;15.57;54.88;99625.56;5093078;27;45375;-37
2022/09/29 11:03:45;;;;;;;;;9.25;8.00;;;;;15.54;54.79;99633.66;5099390;27;45473;-37
2022/09/29 11:06:12;;;;;;;;;8.00;8.00;;;;;15.52;55.08;99635.56;5080628;27;47315;-36
2022/09/29 11:08:56;;;;;;;;;12.75;8.75;;;;;15.47;55.75;99641.13;5098969;27;45380;-36
2022/09/29 11:11:27;;;;;;;;;23.00;15.50;;;;;15.44;55.84;99641.34;5092325;27;45412;-37
2022/09/29 11:13:54;;;;;;;;;10.75;8.00;;;;;15.39;55.85;99646.06;5092297;27;45428;-37
2022/09/29 11:16:36;;;;;;;;;9.25;7.00;;;;;15.35;56.02;99648.03;5091118;27;45395;-37
2022/09/29 11:19:04;;;;;;;;;8.00;8.00;;;;;15.31;55.55;99653.59;5097857;27;45205;-36
2022/09/29 11:21:30;;;;;;;;;9.00;9.00;;;;;15.27;55.75;99650.31;5059170;27;45703;-37
2022/09/29 11:23:57;;;;;;;;;7.67;7.33;;;;;15.24;55.52;99655.78;5095131;27;45445;-40
2022/09/29 11:26:41;;;;;;;;;10.50;7.75;;;;;15.22;55.56;99655.03;5073587;27;46092;-37
2022/09/29 11:29:09;;;;;;;;;9.50;9.00;;;;;15.21;55.75;99649.84;5093428;27;46098;-37
2022/09/29 11:31:39;;;;;;;;;11.25;9.25;;;;;15.18;55.91;99657.03;5091956;27;45279;-37
2022/09/29 11:34:19;;;;;;;;;10.50;9.50;;;;;15.16;55.49;99650.16;5071127;27;45510;-36
2022/09/29 11:37:06;;;;;;;;;6.00;4.75;;;;;15.12;55.32;99656.56;5063202;27;47138;-37
2022/09/29 11:39:49;;;;;;;;;7.00;5.25;;;;;15.08;55.34;99660.34;5084402;27;45278;-36